Time;durP1;ratioP1;P1;durP2;ratioP2;P2;SDS_P1;SDS_P2;PMS_P1;PMS_P2;Temp;Humidity;BMP_temperature;BMP_pressure;BME280_temperature;BME280_humidity;BME280_pressure;Samples;Min_cycle;Max_cycle;Signal;HPM_P1;HPM_P2
2021/10/20 00:01:45;;;;;;;1999.90;999.90;;;;;;;3.66;100.00;96891.59;5113461;28;20269;-68
2021/10/20 00:04:13;;;;;;;1999.90;999.90;;;;;;;3.42;100.00;96893.25;5113609;28;20195;-68
2021/10/20 00:06:40;;;;;;;1999.90;999.90;;;;;;;3.50;100.00;96892.16;5113570;28;20671;-69
2021/10/20 00:09:07;;;;;;;1999.90;999.90;;;;;;;3.46;100.00;96896.94;5113492;28;20205;-67
2021/10/20 00:11:34;;;;;;;1999.90;999.90;;;;;;;3.44;100.00;96890.44;5113657;28;20282;-68
2021/10/20 00:14:02;;;;;;;1999.90;999.90;;;;;;;3.54;100.00;96895.88;5113765;28;20202;-68
2021/10/20 00:16:30;;;;;;;1999.90;999.90;;;;;;;3.46;100.00;96891.81;5113383;28;20199;-68
2021/10/20 00:18:58;;;;;;;1999.90;999.90;;;;;;;3.41;100.00;96890.88;5113889;28;20272;-68
2021/10/20 00:21:27;;;;;;;1999.90;999.90;;;;;;;3.49;100.00;96887.25;5113460;28;20348;-68
2021/10/20 00:23:55;;;;;;;1999.90;999.90;;;;;;;3.43;100.00;96884.53;5113529;28;20350;-68
2021/10/20 00:26:23;;;;;;;1999.90;999.90;;;;;;;3.34;100.00;96885.78;5113076;28;20191;-68
2021/10/20 00:28:50;;;;;;;1999.90;999.90;;;;;;;3.36;100.00;96886.38;5113079;28;20940;-68
2021/10/20 00:31:18;;;;;;;1999.90;999.90;;;;;;;3.38;100.00;96889.53;5113036;28;20202;-68
2021/10/20 00:33:46;;;;;;;1999.90;999.90;;;;;;;3.44;100.00;96885.28;5113071;28;20918;-68
2021/10/20 00:36:14;;;;;;;1999.90;999.90;;;;;;;3.43;100.00;96887.09;5112950;28;20192;-68
2021/10/20 00:38:42;;;;;;;1999.90;999.90;;;;;;;3.27;100.00;96885.09;5112828;28;20318;-68
2021/10/20 00:41:09;;;;;;;1999.90;999.90;;;;;;;3.30;100.00;96889.78;5113136;28;20195;-69
2021/10/20 00:43:37;;;;;;;1999.90;999.90;;;;;;;3.35;100.00;96892.50;5112834;28;20199;-68
2021/10/20 00:46:04;;;;;;;1999.90;999.90;;;;;;;3.28;100.00;96886.66;5112791;28;20195;-67
2021/10/20 00:48:31;;;;;;;1999.90;999.90;;;;;;;3.32;100.00;96882.66;5113029;28;20592;-67
2021/10/20 00:51:00;;;;;;;1999.90;999.90;;;;;;;3.33;100.00;96888.59;5112930;28;20555;-67
2021/10/20 00:53:27;;;;;;;1999.90;999.90;;;;;;;3.35;100.00;96892.50;5111933;28;20698;-67
2021/10/20 00:55:54;;;;;;;1999.90;999.90;;;;;;;3.36;100.00;96888.16;5113011;28;20198;-68
2021/10/20 00:58:22;;;;;;;1999.90;999.90;;;;;;;3.32;100.00;96876.75;5112912;28;20587;-68
2021/10/20 01:00:50;;;;;;;1999.90;999.90;;;;;;;3.29;100.00;96879.72;5112526;28;20732;-68
2021/10/20 01:03:17;;;;;;;1999.90;999.90;;;;;;;3.32;100.00;96879.31;5112462;28;20219;-68
2021/10/20 01:05:44;;;;;;;1999.90;999.90;;;;;;;3.35;100.00;96876.31;5112495;27;20201;-67
2021/10/20 01:08:13;;;;;;;1999.90;999.90;;;;;;;3.34;100.00;96872.94;5112394;28;20203;-68
2021/10/20 01:10:40;;;;;;;1999.90;999.90;;;;;;;3.43;100.00;96876.81;5112467;28;20195;-68
2021/10/20 01:13:07;;;;;;;1999.90;999.90;;;;;;;3.47;100.00;96877.19;5112305;28;20187;-67
2021/10/20 01:15:34;;;;;;;1999.90;999.90;;;;;;;3.39;100.00;96867.94;5112426;28;20191;-68
2021/10/20 01:18:02;;;;;;;1999.90;999.90;;;;;;;3.45;100.00;96868.88;5112598;28;20271;-68
2021/10/20 01:20:31;;;;;;;1999.90;999.90;;;;;;;3.44;100.00;96865.53;5112198;28;20197;-69
2021/10/20 01:23:00;;;;;;;1999.90;999.90;;;;;;;3.42;100.00;96856.47;5112054;28;20226;-68
2021/10/20 01:25:28;;;;;;;1999.90;999.90;;;;;;;3.37;100.00;96859.69;5112121;28;20207;-68
2021/10/20 01:27:56;;;;;;;1999.90;999.90;;;;;;;3.35;100.00;96855.75;5111948;28;20858;-67
2021/10/20 01:30:23;;;;;;;1999.90;999.90;;;;;;;3.36;100.00;96854.75;5111976;28;20203;-68
2021/10/20 01:32:50;;;;;;;1999.90;999.90;;;;;;;3.31;100.00;96864.88;5111935;28;20202;-68
2021/10/20 01:35:17;;;;;;;1999.90;999.90;;;;;;;3.30;100.00;96868.44;5111920;28;20199;-67
2021/10/20 01:37:45;;;;;;;1999.90;999.90;;;;;;;3.30;100.00;96861.53;5112068;28;20655;-67
2021/10/20 01:40:14;;;;;;;1999.90;999.90;;;;;;;3.33;100.00;96863.69;5111563;28;20210;-68
2021/10/20 01:42:42;;;;;;;1999.90;999.90;;;;;;;3.28;100.00;96863.53;5111665;28;20279;-68
2021/10/20 01:45:11;;;;;;;1999.90;999.90;;;;;;;3.22;100.00;96861.81;5112009;27;20218;-68
2021/10/20 01:47:38;;;;;;;1999.90;999.90;;;;;;;3.16;100.00;96867.81;5111868;28;20199;-68
2021/10/20 01:50:08;;;;;;;1999.90;999.90;;;;;;;3.18;100.00;96865.03;5111662;28;20215;-69
2021/10/20 01:52:35;;;;;;;1999.90;999.90;;;;;;;3.11;100.00;96869.44;5111766;28;20195;-68
2021/10/20 01:55:03;;;;;;;1999.90;999.90;;;;;;;3.13;100.00;96868.22;5111669;28;20235;-68
2021/10/20 01:57:31;;;;;;;1999.90;999.90;;;;;;;3.12;100.00;96864.09;5111350;28;20727;-68
2021/10/20 01:59:58;;;;;;;1999.90;999.90;;;;;;;3.13;100.00;96867.44;5111764;28;20226;-68
2021/10/20 02:02:26;;;;;;;1999.90;999.90;;;;;;;3.14;100.00;96863.88;5111227;28;20225;-67
2021/10/20 02:04:53;;;;;;;1999.90;999.90;;;;;;;3.07;100.00;96861.38;5110619;28;20234;-67
2021/10/20 02:07:20;;;;;;;1999.90;999.90;;;;;;;2.99;100.00;96867.53;5111451;28;20199;-68
2021/10/20 02:09:47;;;;;;;1999.90;999.90;;;;;;;3.00;100.00;96863.19;5111266;28;20195;-68
2021/10/20 02:12:14;;;;;;;1999.90;999.90;;;;;;;3.04;100.00;96857.44;5111240;28;20195;-68
2021/10/20 02:14:43;;;;;;;1999.90;999.90;;;;;;;3.00;100.00;96852.94;5111589;28;20658;-69
2021/10/20 02:17:11;;;;;;;1999.90;999.90;;;;;;;2.95;100.00;96855.34;5111096;28;20198;-68
2021/10/20 02:19:38;;;;;;;1999.90;999.90;;;;;;;2.89;100.00;96851.84;5111046;28;20199;-68
2021/10/20 02:22:06;;;;;;;1999.90;999.90;;;;;;;2.90;100.00;96852.63;5111249;28;20228;-68
2021/10/20 02:24:34;;;;;;;1999.90;999.90;;;;;;;2.89;100.00;96854.41;5111002;28;20195;-67
2021/10/20 02:27:02;;;;;;;1999.90;999.90;;;;;;;2.83;100.00;96854.47;5110925;28;20214;-68
2021/10/20 02:29:31;;;;;;;1999.90;999.90;;;;;;;2.87;100.00;96855.63;5110920;28;20195;-68
2021/10/20 02:32:00;;;;;;;1999.90;999.90;;;;;;;2.62;100.00;96859.97;5110778;28;20202;-68
2021/10/20 02:34:27;;;;;;;1999.90;999.90;;;;;;;2.59;100.00;96859.38;5110905;28;20202;-68
2021/10/20 02:36:54;;;;;;;1999.90;999.90;;;;;;;2.61;100.00;96859.19;5110974;28;20579;-68
2021/10/20 02:39:21;;;;;;;1999.90;999.90;;;;;;;2.60;100.00;96855.84;5110720;28;20203;-68
2021/10/20 02:41:49;;;;;;;1999.90;999.90;;;;;;;2.61;100.00;96856.63;5110622;28;20207;-68
2021/10/20 02:44:16;;;;;;;1999.90;999.90;;;;;;;2.55;100.00;96860.00;5110834;28;20230;-68
2021/10/20 02:46:43;;;;;;;1999.90;999.90;;;;;;;2.48;100.00;96859.28;5110770;28;20195;-66
2021/10/20 02:49:11;;;;;;;1999.90;999.90;;;;;;;2.55;100.00;96858.25;5110929;28;20220;-67
2021/10/20 02:51:38;;;;;;;1999.90;999.90;;;;;;;2.51;100.00;96851.97;5110808;28;20281;-67
2021/10/20 02:54:07;;;;;;;1999.90;999.90;;;;;;;2.55;100.00;96854.88;5110873;28;20202;-68
2021/10/20 02:56:34;;;;;;;1999.90;999.90;;;;;;;2.48;100.00;96854.94;5110261;28;21000;-68
2021/10/20 02:59:01;;;;;;;1999.90;999.90;;;;;;;2.43;100.00;96857.34;5110607;28;20202;-68
2021/10/20 03:01:28;;;;;;;1999.90;999.90;;;;;;;2.40;100.00;96860.31;5110487;28;20201;-68
2021/10/20 03:03:55;;;;;;;1999.90;999.90;;;;;;;2.53;100.00;96862.81;5110603;28;20241;-69
2021/10/20 03:06:24;;;;;;;1999.90;999.90;;;;;;;2.42;100.00;96860.13;5110435;28;20549;-68
2021/10/20 03:08:51;;;;;;;1999.90;999.90;;;;;;;2.45;100.00;96857.91;5110722;28;20200;-68
2021/10/20 03:11:19;;;;;;;1999.90;999.90;;;;;;;2.38;100.00;96859.75;5110557;28;20198;-68
2021/10/20 03:13:46;;;;;;;1999.90;999.90;;;;;;;2.33;100.00;96858.81;5110510;28;20203;-68
2021/10/20 03:16:13;;;;;;;1999.90;999.90;;;;;;;2.25;100.00;96859.03;5111477;28;20709;-68
2021/10/20 03:18:40;;;;;;;1999.90;999.90;;;;;;;2.19;100.00;96859.88;5114760;28;20208;-68
2021/10/20 03:21:07;;;;;;;1999.90;999.90;;;;;;;2.23;100.00;96859.25;5114697;28;20194;-68
2021/10/20 03:23:36;;;;;;;1999.90;999.90;;;;;;;2.19;100.00;96855.53;5114366;28;20224;-68
2021/10/20 03:26:03;;;;;;;1999.90;999.90;;;;;;;2.23;100.00;96856.69;5114451;28;20197;-68
2021/10/20 03:28:30;;;;;;;1999.90;999.90;;;;;;;2.15;100.00;96857.72;5114720;28;20202;-68
2021/10/20 03:30:57;;;;;;;1999.90;999.90;;;;;;;2.09;100.00;96855.19;5114325;27;20198;-68
2021/10/20 03:33:24;;;;;;;1999.90;999.90;;;;;;;2.09;100.00;96850.06;5114261;28;20193;-68
2021/10/20 03:35:52;;;;;;;1999.90;999.90;;;;;;;2.21;100.00;96857.88;5114128;28;20204;-67
2021/10/20 03:38:19;;;;;;;1999.90;999.90;;;;;;;2.17;100.00;96855.75;5114157;27;20202;-68
2021/10/20 03:40:48;;;;;;;1999.90;999.90;;;;;;;2.26;100.00;96861.41;5114079;28;20199;-67
2021/10/20 03:43:15;;;;;;;1999.90;999.90;;;;;;;2.27;100.00;96857.06;5114326;28;20225;-67
2021/10/20 03:45:42;;;;;;;1999.90;999.90;;;;;;;2.28;100.00;96859.41;5113996;28;20298;-67
2021/10/20 03:48:09;;;;;;;1999.90;999.90;;;;;;;2.11;100.00;96855.75;5113791;28;20195;-68
2021/10/20 03:50:36;;;;;;;1999.90;999.90;;;;;;;1.92;100.00;96857.44;5114326;27;20199;-68
2021/10/20 03:53:04;;;;;;;1999.90;999.90;;;;;;;1.98;100.00;96863.53;5113806;28;20191;-68
2021/10/20 03:55:31;;;;;;;1999.90;999.90;;;;;;;1.97;100.00;96856.84;5114326;28;20202;-68
2021/10/20 03:58:01;;;;;;;1999.90;999.90;;;;;;;1.90;100.00;96858.63;5113815;28;20238;-69
2021/10/20 04:00:28;;;;;;;1999.90;999.90;;;;;;;1.99;100.00;96853.06;5114086;28;20577;-68
2021/10/20 04:02:55;;;;;;;1999.90;999.90;;;;;;;2.02;100.00;96844.97;5114102;28;20276;-68
2021/10/20 04:05:22;;;;;;;1999.90;999.90;;;;;;;1.95;100.00;96853.66;5113968;28;20191;-69
2021/10/20 04:07:52;;;;;;;1999.90;999.90;;;;;;;1.81;100.00;96860.66;5113650;28;20195;-68
2021/10/20 04:10:22;;;;;;;1999.90;999.90;;;;;;;1.88;100.00;96850.38;5113628;28;20203;-68
2021/10/20 04:12:50;;;;;;;1999.90;999.90;;;;;;;1.88;100.00;96858.84;5113913;28;20176;-68
2021/10/20 04:15:21;;;;;;;1999.90;999.90;;;;;;;1.88;100.00;96855.50;5113826;28;20198;-69
2021/10/20 04:17:49;;;;;;;1999.90;999.90;;;;;;;1.78;100.00;96855.94;5113807;28;20190;-67
2021/10/20 04:20:18;;;;;;;1999.90;999.90;;;;;;;1.83;100.00;96863.00;5113345;28;20209;-69
2021/10/20 04:22:48;;;;;;;1999.90;999.90;;;;;;;1.87;100.00;96857.28;5113505;28;20230;-68
2021/10/20 04:25:15;;;;;;;1999.90;999.90;;;;;;;1.86;100.00;96860.81;5113360;28;20198;-68
2021/10/20 04:27:43;;;;;;;1999.90;999.90;;;;;;;1.93;100.00;96863.38;5112305;28;20191;-68
2021/10/20 04:30:12;;;;;;;1999.90;999.90;;;;;;;1.95;100.00;96859.59;5113748;28;20231;-67
2021/10/20 04:32:41;;;;;;;1999.90;999.90;;;;;;;1.94;100.00;96854.69;5112891;28;20220;-68
2021/10/20 04:35:10;;;;;;;1999.90;999.90;;;;;;;1.92;100.00;96857.44;5113159;28;20195;-68
2021/10/20 04:37:37;;;;;;;1999.90;999.90;;;;;;;1.95;100.00;96858.81;5113073;28;20706;-66
2021/10/20 04:40:07;;;;;;;1999.90;999.90;;;;;;;1.91;100.00;96860.22;5112939;28;20205;-68
2021/10/20 04:42:35;;;;;;;1999.90;999.90;;;;;;;1.93;100.00;96856.47;5113082;28;20199;-67
2021/10/20 04:45:02;;;;;;;1999.90;999.90;;;;;;;1.93;100.00;96858.25;5112865;28;20193;-67
2021/10/20 04:47:29;;;;;;;1999.90;999.90;;;;;;;1.83;100.00;96855.31;5112626;28;20253;-67
2021/10/20 04:49:58;;;;;;;1999.90;999.90;;;;;;;1.79;100.00;96856.72;5113017;28;20294;-68
2021/10/20 04:52:26;;;;;;;1999.90;999.90;;;;;;;1.47;100.00;96856.66;5112748;28;20198;-69
2021/10/20 04:54:54;;;;;;;1999.90;999.90;;;;;;;1.44;100.00;96861.38;5112672;28;20213;-68
2021/10/20 04:57:21;;;;;;;1999.90;999.90;;;;;;;1.32;100.00;96852.75;5112357;28;20291;-68
2021/10/20 04:59:48;;;;;;;1999.90;999.90;;;;;;;1.36;100.00;96861.59;5112874;27;20221;-68
2021/10/20 05:02:16;;;;;;;1999.90;999.90;;;;;;;1.38;100.00;96855.28;5112782;28;20203;-69
2021/10/20 05:04:44;;;;;;;1999.90;999.90;;;;;;;1.43;100.00;96859.81;5112696;28;20232;-68
2021/10/20 05:07:13;;;;;;;1999.90;999.90;;;;;;;1.52;100.00;96861.16;5112488;28;20203;-67
2021/10/20 05:09:41;;;;;;;1999.90;999.90;;;;;;;1.57;100.00;96872.38;5112433;28;20201;-68
2021/10/20 05:12:08;;;;;;;1999.90;999.90;;;;;;;1.52;100.00;96868.84;5112238;28;20669;-69
2021/10/20 05:14:35;;;;;;;1999.90;999.90;;;;;;;1.50;100.00;96874.16;5112380;28;20294;-68
2021/10/20 05:17:02;;;;;;;1999.90;999.90;;;;;;;1.52;100.00;96879.88;5112320;28;20191;-68
2021/10/20 05:19:30;;;;;;;1999.90;999.90;;;;;;;1.68;100.00;96881.22;5112251;28;20300;-68
2021/10/20 05:21:57;;;;;;;1999.90;999.90;;;;;;;1.80;100.00;96886.47;5112101;28;20283;-68
2021/10/20 05:24:25;;;;;;;1999.90;999.90;;;;;;;1.89;100.00;96880.16;5112342;28;20247;-68
2021/10/20 05:26:54;;;;;;;1999.90;999.90;;;;;;;1.98;100.00;96876.34;5112410;28;20833;-68
2021/10/20 05:29:22;;;;;;;1999.90;999.90;;;;;;;2.09;100.00;96881.59;5112022;28;20206;-69
2021/10/20 05:31:50;;;;;;;1999.90;999.90;;;;;;;2.06;100.00;96881.22;5112334;28;20746;-68
2021/10/20 05:34:17;;;;;;;1999.90;999.90;;;;;;;2.08;100.00;96879.25;5112306;28;20201;-68
2021/10/20 05:36:45;;;;;;;1999.90;999.90;;;;;;;2.16;100.00;96887.50;5112211;28;20194;-68
2021/10/20 05:39:12;;;;;;;1999.90;999.90;;;;;;;2.25;100.00;96885.47;5111574;28;20205;-65
2021/10/20 05:41:40;;;;;;;1999.90;999.90;;;;;;;2.42;100.00;96890.91;5111697;28;20198;-67
2021/10/20 05:44:08;;;;;;;1999.90;999.90;;;;;;;2.55;100.00;96896.72;5111242;28;20219;-67
2021/10/20 05:46:35;;;;;;;1999.90;999.90;;;;;;;2.65;100.00;96890.34;5111574;28;20197;-68
2021/10/20 05:49:02;;;;;;;1999.90;999.90;;;;;;;2.80;100.00;96888.25;5111648;28;20195;-68
2021/10/20 05:51:29;;;;;;;1999.90;999.90;;;;;;;2.93;100.00;96894.09;5111717;28;20210;-68
2021/10/20 05:53:56;;;;;;;1999.90;999.90;;;;;;;2.95;100.00;96891.28;5111694;28;20246;-68
2021/10/20 05:56:24;;;;;;;1999.90;999.90;;;;;;;2.86;100.00;96888.22;5111244;28;20286;-69
2021/10/20 05:58:52;;;;;;;1999.90;999.90;;;;;;;2.94;100.00;96890.50;5111407;28;20277;-68
2021/10/20 06:01:23;;;;;;;1999.90;999.90;;;;;;;3.13;100.00;96893.91;5111556;28;20213;-68
2021/10/20 06:03:50;;;;;;;1999.90;999.90;;;;;;;3.30;100.00;96892.34;5111321;28;20218;-68
2021/10/20 06:06:17;;;;;;;1999.90;999.90;;;;;;;3.57;100.00;96894.66;5111197;28;20199;-68
2021/10/20 06:08:44;;;;;;;1999.90;999.90;;;;;;;3.75;100.00;96897.22;5111349;28;20210;-68
2021/10/20 06:11:11;;;;;;;1999.90;999.90;;;;;;;3.95;100.00;96902.13;5111247;28;20195;-68
2021/10/20 06:13:39;;;;;;;1999.90;999.90;;;;;;;4.09;100.00;96898.41;5111190;28;20191;-68
2021/10/20 06:16:08;;;;;;;1999.90;999.90;;;;;;;4.26;100.00;96902.72;5111199;28;20203;-68
2021/10/20 06:18:35;;;;;;;1999.90;999.90;;;;;;;4.50;100.00;96908.75;5111402;28;20577;-67
2021/10/20 06:21:03;;;;;;;1999.90;999.90;;;;;;;4.68;100.00;96902.75;5111150;28;20202;-68
2021/10/20 06:23:30;;;;;;;1999.90;999.90;;;;;;;4.81;100.00;96902.53;5111167;28;20248;-68
2021/10/20 06:25:57;;;;;;;1999.90;999.90;;;;;;;4.99;100.00;96899.88;5111022;28;20195;-68
2021/10/20 06:28:24;;;;;;;1999.90;999.90;;;;;;;5.16;100.00;96900.00;5111283;28;20200;-68
2021/10/20 06:30:51;;;;;;;1999.90;999.90;;;;;;;5.27;100.00;96906.16;5110893;28;20698;-67
2021/10/20 06:33:20;;;;;;;1999.90;999.90;;;;;;;5.44;100.00;96901.88;5110888;28;20734;-69
2021/10/20 06:35:47;;;;;;;1999.90;999.90;;;;;;;5.63;100.00;96908.47;5110874;28;20198;-68
2021/10/20 06:38:14;;;;;;;1999.90;999.90;;;;;;;5.83;100.00;96906.31;5110684;28;20714;-68
2021/10/20 06:40:42;;;;;;;1999.90;999.90;;;;;;;5.84;100.00;96909.66;5110781;28;20205;-68
2021/10/20 06:43:09;;;;;;;1999.90;999.90;;;;;;;6.04;100.00;96913.47;5110657;28;20194;-68
2021/10/20 06:45:37;;;;;;;1999.90;999.90;;;;;;;6.14;100.00;96912.88;5110800;28;20206;-69
2021/10/20 06:48:04;;;;;;;1999.90;999.90;;;;;;;6.41;100.00;96905.38;5110837;28;20206;-69
2021/10/20 06:50:33;;;;;;;1999.90;999.90;;;;;;;6.51;99.22;96908.13;5110170;28;20206;-69
2021/10/20 06:53:01;;;;;;;1999.90;999.90;;;;;;;6.69;98.85;96914.88;5110695;28;21016;-69
2021/10/20 06:55:28;;;;;;;1999.90;999.90;;;;;;;6.85;97.89;96911.53;5111174;28;20213;-69
2021/10/20 06:57:55;;;;;;;1999.90;999.90;;;;;;;6.91;98.13;96919.13;5110802;28;20241;-69
2021/10/20 07:00:22;;;;;;;1999.90;999.90;;;;;;;7.07;97.79;96914.22;5111108;28;20202;-69
2021/10/20 07:02:49;;;;;;;1999.90;999.90;;;;;;;7.20;97.55;96913.88;5110621;28;20205;-69
2021/10/20 07:05:17;;;;;;;1999.90;999.90;;;;;;;7.35;98.54;96921.84;5110500;28;20222;-69
2021/10/20 07:07:45;;;;;;;1999.90;999.90;;;;;;;7.47;98.57;96914.00;5110420;28;20195;-69
2021/10/20 07:10:12;;;;;;;1999.90;999.90;;;;;;;7.54;97.39;96912.81;5110594;28;20206;-69
2021/10/20 07:12:39;;;;;;;1999.90;999.90;;;;;;;7.78;97.50;96913.38;5110418;28;20195;-69
2021/10/20 07:15:08;;;;;;;1999.90;999.90;;;;;;;8.06;95.59;96913.22;5110661;28;20199;-69
2021/10/20 07:17:35;;;;;;;1999.90;999.90;;;;;;;8.14;93.63;96919.75;5110228;28;20206;-69
2021/10/20 07:20:03;;;;;;;1999.90;999.90;;;;;;;7.83;95.03;96925.59;5110654;28;20191;-69
2021/10/20 07:22:34;;;;;;;1999.90;999.90;;;;;;;7.88;96.91;96923.06;5110640;28;20199;-69
2021/10/20 07:25:02;;;;;;;1999.90;999.90;;;;;;;8.10;97.56;96918.69;5110603;28;20235;-68
2021/10/20 07:27:31;;;;;;;1999.90;999.90;;;;;;;7.95;95.78;96928.84;5110296;28;20195;-69
2021/10/20 07:29:58;;;;;;;1999.90;999.90;;;;;;;8.18;96.27;96919.03;5110555;28;20563;-69
2021/10/20 07:32:25;;;;;;;1999.90;999.90;;;;;;;8.20;95.17;96922.16;5110237;28;20199;-69
2021/10/20 07:34:52;;;;;;;1999.90;999.90;;;;;;;8.34;96.56;96920.00;5110432;28;20675;-68
2021/10/20 07:37:19;;;;;;;1999.90;999.90;;;;;;;8.48;94.48;96915.22;5110190;28;20753;-69
2021/10/20 07:39:46;;;;;;;1999.90;999.90;;;;;;;8.63;94.10;96912.78;5110284;28;20203;-69
2021/10/20 07:42:15;;;;;;;1999.90;999.90;;;;;;;8.63;96.02;96915.34;5109941;28;20199;-69
2021/10/20 07:44:43;;;;;;;1999.90;999.90;;;;;;;8.58;95.00;96913.50;5109662;28;20219;-69
2021/10/20 07:47:10;;;;;;;1999.90;999.90;;;;;;;8.60;95.17;96916.66;5109995;28;20206;-69
2021/10/20 07:49:37;;;;;;;1999.90;999.90;;;;;;;8.61;95.84;96907.06;5110208;28;20244;-69
2021/10/20 07:52:04;;;;;;;1999.90;999.90;;;;;;;8.94;95.41;96911.22;5110429;28;20195;-67
2021/10/20 07:54:31;;;;;;;1999.90;999.90;;;;;;;9.27;94.34;96917.94;5110326;28;20199;-69
2021/10/20 07:56:58;;;;;;;1999.90;999.90;;;;;;;9.25;92.56;96909.66;5109823;28;20227;-69
2021/10/20 07:59:27;;;;;;;1999.90;999.90;;;;;;;9.52;93.20;96908.50;5110238;28;20283;-69
2021/10/20 08:01:54;;;;;;;1999.90;999.90;;;;;;;9.49;92.00;96903.84;5110810;28;20225;-69
2021/10/20 08:04:21;;;;;;;1999.90;999.90;;;;;;;9.69;92.55;96904.97;5113696;28;20233;-69
2021/10/20 08:06:48;;;;;;;1999.90;999.90;;;;;;;9.87;90.38;96907.13;5113697;28;20252;-69
2021/10/20 08:09:15;;;;;;;1999.90;999.90;;;;;;;9.87;89.76;96907.91;5113623;28;20268;-68
2021/10/20 08:11:43;;;;;;;1999.90;999.90;;;;;;;10.06;90.84;96910.81;5113656;28;20206;-69
2021/10/20 08:14:10;;;;;;;1999.90;999.90;;;;;;;10.18;88.12;96901.03;5113825;28;20191;-68
2021/10/20 08:16:39;;;;;;;1999.90;999.90;;;;;;;10.54;90.01;96895.91;5113551;27;20191;-67
2021/10/20 08:19:06;;;;;;;1999.90;999.90;;;;;;;10.38;87.51;96895.09;5113842;28;20201;-67
2021/10/20 08:21:33;;;;;;;1999.90;999.90;;;;;;;10.69;86.70;96901.91;5113549;28;21174;-68
2021/10/20 08:24:00;;;;;;;1999.90;999.90;;;;;;;10.43;87.06;96902.13;5104259;28;20235;-67
2021/10/20 08:26:27;;;;;;;1999.90;999.90;;;;;;;10.36;88.73;96897.94;5110310;28;20199;-67
2021/10/20 08:28:54;;;;;;;1999.90;999.90;;;;;;;10.55;87.22;96903.47;5113444;28;20271;-68
2021/10/20 08:31:21;;;;;;;1999.90;999.90;;;;;;;10.82;86.97;96894.63;5113213;28;20203;-68
2021/10/20 08:33:49;;;;;;;1999.90;999.90;;;;;;;11.04;85.33;96888.16;5113414;28;20244;-67
2021/10/20 08:36:16;;;;;;;1999.90;999.90;;;;;;;11.11;83.92;96891.25;5113262;28;20195;-68
2021/10/20 08:38:43;;;;;;;1999.90;999.90;;;;;;;11.18;85.50;96891.78;5113042;28;20260;-68
2021/10/20 08:41:11;;;;;;;1999.90;999.90;;;;;;;11.02;85.09;96884.22;5113509;28;20208;-68
2021/10/20 08:43:39;;;;;;;1999.90;999.90;;;;;;;11.30;84.15;96888.13;5112772;28;20326;-67
2021/10/20 08:46:07;;;;;;;1999.90;999.90;;;;;;;11.43;80.66;96887.56;5113060;27;20210;-68
2021/10/20 08:48:34;;;;;;;1999.90;999.90;;;;;;;11.66;82.04;96879.94;5112971;28;20658;-68
2021/10/20 08:51:03;;;;;;;1999.90;999.90;;;;;;;11.69;80.46;96878.66;5113127;28;20225;-68
2021/10/20 08:53:30;;;;;;;1999.90;999.90;;;;;;;11.79;80.28;96878.63;5112777;28;20199;-69
2021/10/20 08:55:59;;;;;;;1999.90;999.90;;;;;;;11.96;80.65;96879.06;5112742;28;20199;-68
2021/10/20 08:58:27;;;;;;;1999.90;999.90;;;;;;;12.07;79.23;96878.00;5112427;28;20274;-68
2021/10/20 09:00:54;;;;;;;1999.90;999.90;;;;;;;12.19;77.55;96869.06;5112968;28;20203;-68
2021/10/20 09:03:21;;;;;;;1999.90;999.90;;;;;;;12.34;78.04;96863.78;5112902;28;20303;-68
2021/10/20 09:05:49;;;;;;;1999.90;999.90;;;;;;;12.47;77.00;96860.56;5112827;28;20219;-68
2021/10/20 09:08:17;;;;;;;1999.90;999.90;;;;;;;12.62;76.43;96855.22;5112446;28;20205;-68
2021/10/20 09:10:47;;;;;;;1999.90;999.90;;;;;;;12.53;78.78;96856.88;5112534;28;20593;-68
2021/10/20 09:13:15;;;;;;;1999.90;999.90;;;;;;;12.68;77.86;96848.16;5112506;28;20563;-68
2021/10/20 09:15:42;;;;;;;1999.90;999.90;;;;;;;12.23;78.16;96859.66;5112026;28;20230;-68
2021/10/20 09:18:11;;;;;;;1999.90;999.90;;;;;;;12.42;79.49;96856.16;5112593;28;20280;-68
2021/10/20 09:20:40;;;;;;;1999.90;999.90;;;;;;;12.75;77.90;96849.38;5112637;27;20198;-68
2021/10/20 09:23:10;;;;;;;1999.90;999.90;;;;;;;12.99;78.63;96844.25;5112137;28;20729;-69
2021/10/20 09:25:42;;;;;;;1999.90;999.90;;;;;;;12.99;77.24;96849.47;5112384;28;20291;-68
2021/10/20 09:28:11;;;;;;;1999.90;999.90;;;;;;;13.09;75.74;96853.81;5112523;28;20264;-67
2021/10/20 09:30:40;;;;;;;1999.90;999.90;;;;;;;13.25;76.85;96842.97;5112303;28;20191;-68
2021/10/20 09:33:08;;;;;;;1999.90;999.90;;;;;;;13.38;75.59;96846.75;5111824;28;20289;-67
2021/10/20 09:35:36;;;;;;;1999.90;999.90;;;;;;;13.24;77.35;96832.81;5112258;28;20195;-67
2021/10/20 09:38:04;;;;;;;1999.90;999.90;;;;;;;13.35;76.63;96836.84;5111856;28;20558;-67
2021/10/20 09:40:36;;;;;;;1999.90;999.90;;;;;;;13.63;74.62;96838.66;5111953;28;20203;-67
2021/10/20 09:43:05;;;;;;;1999.90;999.90;;;;;;;13.66;73.90;96832.84;5111864;27;20198;-67
2021/10/20 09:45:36;;;;;;;1999.90;999.90;;;;;;;13.58;76.28;96824.88;5111589;28;20222;-67
2021/10/20 09:48:14;;;;;;;1999.90;999.90;;;;;;;13.53;75.83;96830.16;5111897;28;20549;-67
2021/10/20 09:50:53;;;;;;;1999.90;999.90;;;;;;;13.57;74.63;96829.31;5111585;28;20206;-68
2021/10/20 09:53:20;;;;;;;1999.90;999.90;;;;;;;13.71;75.45;96824.19;5111967;28;20179;-68
2021/10/20 09:55:47;;;;;;;1999.90;999.90;;;;;;;13.79;75.75;96828.81;5111915;28;20218;-68
2021/10/20 09:58:17;;;;;;;1999.90;999.90;;;;;;;13.96;73.45;96828.31;5111459;28;20295;-68
2021/10/20 10:00:45;;;;;;;1999.90;999.90;;;;;;;14.16;72.27;96820.97;5111353;28;20203;-68
2021/10/20 10:03:12;;;;;;;1999.90;999.90;;;;;;;14.07;73.10;96816.66;5111412;28;20195;-68
2021/10/20 10:05:40;;;;;;;1999.90;999.90;;;;;;;14.09;71.75;96811.94;5111656;28;20215;-68
2021/10/20 10:08:07;;;;;;;1999.90;999.90;;;;;;;14.16;71.99;96807.91;5111892;28;20199;-68
2021/10/20 10:10:36;;;;;;;1999.90;999.90;;;;;;;14.33;71.88;96801.41;5111473;28;20675;-68
2021/10/20 10:13:07;;;;;;;1999.90;999.90;;;;;;;14.21;70.04;96804.44;5111693;28;20191;-68
2021/10/20 10:15:40;;;;;;;1999.90;999.90;;;;;;;14.45;69.58;96796.53;5111556;28;20190;-68
2021/10/20 10:18:10;;;;;;;1999.90;999.90;;;;;;;14.54;67.74;96790.38;5111464;28;20183;-69
2021/10/20 10:20:41;;;;;;;1999.90;999.90;;;;;;;14.56;67.72;96788.22;5111317;28;20201;-68
2021/10/20 10:23:19;;;;;;;1999.90;999.90;;;;;;;14.65;66.38;96783.88;5111172;28;20186;-69
2021/10/20 10:25:47;;;;;;;1999.90;999.90;;;;;;;14.73;67.29;96779.84;5110486;28;20214;-68
2021/10/20 10:28:23;;;;;;;1999.90;999.90;;;;;;;14.83;69.38;96776.28;5111174;28;20195;-68
2021/10/20 10:30:53;;;;;;;1999.90;999.90;;;;;;;14.97;68.16;96767.38;5111093;28;20297;-69
2021/10/20 10:33:22;;;;;;;1999.90;999.90;;;;;;;15.00;65.35;96760.78;5111262;28;20179;-68
2021/10/20 10:36:14;;;;;;;1999.90;999.90;;;;;;;15.04;65.45;96757.28;5111167;28;20195;-68
2021/10/20 10:38:43;;;;;;;1999.90;999.90;;;;;;;15.14;66.41;96750.34;5110834;28;20183;-67
2021/10/20 10:41:21;;;;;;;1999.90;999.90;;;;;;;15.26;64.28;96750.59;5111153;28;20191;-68
2021/10/20 10:44:15;;;;;;;1999.90;999.90;;;;;;;14.91;64.10;96738.97;5110920;28;20194;-68
2021/10/20 10:46:54;;;;;;;1999.90;999.90;;;;;;;15.08;64.65;96733.94;5110281;28;20330;-68
2021/10/20 10:49:26;;;;;;;1999.90;999.90;;;;;;;15.25;64.77;96736.75;5110698;28;20199;-68
2021/10/20 10:52:29;;;;;;;1999.90;999.90;;;;;;;15.38;61.43;96730.72;5110278;28;20563;-68
2021/10/20 10:55:17;;;;;;;1999.90;999.90;;;;;;;15.43;62.40;96720.16;5110872;28;20186;-68
2021/10/20 10:57:50;;;;;;;1999.90;999.90;;;;;;;15.58;63.56;96710.44;5110275;28;20658;-68
2021/10/20 11:00:36;;;;;;;1999.90;999.90;;;;;;;15.76;62.92;96710.28;5110593;28;20187;-68